sensor_id;sensor_type;location;lat;lon;timestamp;pressure;altitude;pressure_sealevel;temperature;humidity
70302;BME280;57706;56.326;43.882;2023-02-26T00:00:26;99568.34;;;0.51;85.13
70302;BME280;57706;56.326;43.882;2023-02-26T00:02:51;99568.34;;;0.63;85.36
70302;BME280;57706;56.326;43.882;2023-02-26T00:05:17;99565.50;;;0.66;84.55
70302;BME280;57706;56.326;43.882;2023-02-26T00:07:43;99572.34;;;0.67;84.71
70302;BME280;57706;56.326;43.882;2023-02-26T00:10:11;99557.38;;;0.93;83.57
70302;BME280;57706;56.326;43.882;2023-02-26T00:12:38;99549.16;;;0.77;83.99
70302;BME280;57706;56.326;43.882;2023-02-26T00:15:05;99549.75;;;0.69;84.57
70302;BME280;57706;56.326;43.882;2023-02-26T00:19:59;99545.75;;;0.53;86.07
70302;BME280;57706;56.326;43.882;2023-02-26T00:22:25;99533.50;;;0.78;83.99
70302;BME280;57706;56.326;43.882;2023-02-26T00:24:51;99545.28;;;0.60;84.82
70302;BME280;57706;56.326;43.882;2023-02-26T00:27:17;99540.00;;;0.61;85.36
70302;BME280;57706;56.326;43.882;2023-02-26T00:29:43;99538.00;;;0.76;85.06
70302;BME280;57706;56.326;43.882;2023-02-26T00:32:09;99532.22;;;0.73;84.54
70302;BME280;57706;56.326;43.882;2023-02-26T00:34:35;99536.69;;;0.93;84.09
70302;BME280;57706;56.326;43.882;2023-02-26T00:42:35;99535.31;;;0.66;84.22
70302;BME280;57706;56.326;43.882;2023-02-26T00:45:02;99535.50;;;0.86;83.51
70302;BME280;57706;56.326;43.882;2023-02-26T00:47:39;99523.22;;;0.56;84.61
70302;BME280;57706;56.326;43.882;2023-02-26T00:50:16;99533.75;;;0.75;84.74
70302;BME280;57706;56.326;43.882;2023-02-26T00:52:52;99520.59;;;0.67;84.27
70302;BME280;57706;56.326;43.882;2023-02-26T00:55:23;99521.34;;;0.46;85.02
70302;BME280;57706;56.326;43.882;2023-02-26T00:57:49;99519.91;;;0.53;85.27
70302;BME280;57706;56.326;43.882;2023-02-26T01:00:15;99524.84;;;0.79;84.13
70302;BME280;57706;56.326;43.882;2023-02-26T01:02:42;99524.09;;;0.89;83.41
70302;BME280;57706;56.326;43.882;2023-02-26T01:05:08;99525.06;;;0.76;84.02
70302;BME280;57706;56.326;43.882;2023-02-26T01:07:47;99510.66;;;1.06;83.39
70302;BME280;57706;56.326;43.882;2023-02-26T01:10:17;99512.91;;;0.88;83.35
70302;BME280;57706;56.326;43.882;2023-02-26T01:12:43;99515.25;;;1.03;82.96
70302;BME280;57706;56.326;43.882;2023-02-26T01:15:09;99523.88;;;0.69;83.75
70302;BME280;57706;56.326;43.882;2023-02-26T01:17:40;99517.03;;;0.91;82.99
70302;BME280;57706;56.326;43.882;2023-02-26T01:20:23;99521.78;;;0.74;83.74
70302;BME280;57706;56.326;43.882;2023-02-26T01:23:02;99528.13;;;0.59;85.24
70302;BME280;57706;56.326;43.882;2023-02-26T01:25:39;99523.38;;;0.87;84.01
70302;BME280;57706;56.326;43.882;2023-02-26T01:28:06;99534.94;;;0.60;84.76
70302;BME280;57706;56.326;43.882;2023-02-26T01:30:32;99524.09;;;0.89;84.01
70302;BME280;57706;56.326;43.882;2023-02-26T01:33:13;99516.09;;;0.92;82.92
70302;BME280;57706;56.326;43.882;2023-02-26T01:41:44;99509.63;;;0.86;83.86
70302;BME280;57706;56.326;43.882;2023-02-26T01:50:19;99506.50;;;0.71;84.83
70302;BME280;57706;56.326;43.882;2023-02-26T01:55:16;99498.16;;;0.56;84.31
70302;BME280;57706;56.326;43.882;2023-02-26T01:57:43;99483.91;;;0.73;84.61
70302;BME280;57706;56.326;43.882;2023-02-26T02:00:09;99497.06;;;0.70;84.56
70302;BME280;57706;56.326;43.882;2023-02-26T02:02:38;99488.19;;;0.95;83.48
70302;BME280;57706;56.326;43.882;2023-02-26T02:05:28;99491.63;;;0.85;83.62
70302;BME280;57706;56.326;43.882;2023-02-26T02:07:57;99486.13;;;0.78;83.99
70302;BME280;57706;56.326;43.882;2023-02-26T02:10:23;99490.72;;;0.74;83.58
70302;BME280;57706;56.326;43.882;2023-02-26T02:13:00;99482.44;;;0.92;83.27
70302;BME280;57706;56.326;43.882;2023-02-26T02:18:52;99480.38;;;0.74;83.40
70302;BME280;57706;56.326;43.882;2023-02-26T02:24:55;99476.50;;;1.13;82.21
70302;BME280;57706;56.326;43.882;2023-02-26T02:27:12;99475.59;;;1.02;82.12
70302;BME280;57706;56.326;43.882;2023-02-26T02:32:58;99474.16;;;0.65;84.08
70302;BME280;57706;56.326;43.882;2023-02-26T02:35:21;99466.44;;;0.98;82.88
70302;BME280;57706;56.326;43.882;2023-02-26T02:37:54;99463.66;;;0.90;83.33
70302;BME280;57706;56.326;43.882;2023-02-26T02:40:29;99468.19;;;0.65;83.88
70302;BME280;57706;56.326;43.882;2023-02-26T02:43:03;99473.50;;;0.96;83.15
70302;BME280;57706;56.326;43.882;2023-02-26T02:46:04;99466.19;;;1.01;82.68
70302;BME280;57706;56.326;43.882;2023-02-26T02:48:35;99458.94;;;0.84;82.55
70302;BME280;57706;56.326;43.882;2023-02-26T02:53:43;99450.78;;;0.67;83.87
70302;BME280;57706;56.326;43.882;2023-02-26T02:56:29;99456.41;;;0.61;84.17
70302;BME280;57706;56.326;43.882;2023-02-26T02:59:17;99457.00;;;0.76;83.56
70302;BME280;57706;56.326;43.882;2023-02-26T03:01:44;99430.19;;;0.77;83.14
70302;BME280;57706;56.326;43.882;2023-02-26T03:04:12;99414.28;;;0.81;83.13
70302;BME280;57706;56.326;43.882;2023-02-26T03:06:40;99417.16;;;0.67;83.04
70302;BME280;57706;56.326;43.882;2023-02-26T03:09:08;99435.25;;;0.67;83.33
70302;BME280;57706;56.326;43.882;2023-02-26T03:11:35;99408.44;;;0.68;83.54
70302;BME280;57706;56.326;43.882;2023-02-26T03:14:02;99409.84;;;0.72;83.51
70302;BME280;57706;56.326;43.882;2023-02-26T03:26:12;99387.75;;;0.68;82.89
70302;BME280;57706;56.326;43.882;2023-02-26T03:34:29;99381.81;;;0.77;82.67
70302;BME280;57706;56.326;43.882;2023-02-26T03:37:03;99380.47;;;0.94;82.38
70302;BME280;57706;56.326;43.882;2023-02-26T03:39:45;99374.78;;;0.79;82.77
70302;BME280;57706;56.326;43.882;2023-02-26T03:45:00;99356.13;;;0.97;82.06
70302;BME280;57706;56.326;43.882;2023-02-26T03:47:31;99352.31;;;0.80;82.26
70302;BME280;57706;56.326;43.882;2023-02-26T03:52:49;99347.63;;;0.95;83.00
70302;BME280;57706;56.326;43.882;2023-02-26T03:55:50;99349.44;;;0.62;83.48
70302;BME280;57706;56.326;43.882;2023-02-26T03:58:30;99344.44;;;1.03;81.42
70302;BME280;57706;56.326;43.882;2023-02-26T04:01:25;99340.13;;;0.71;82.46
70302;BME280;57706;56.326;43.882;2023-02-26T04:03:57;99348.09;;;0.79;82.92
70302;BME280;57706;56.326;43.882;2023-02-26T04:06:25;99329.47;;;0.64;82.54
70302;BME280;57706;56.326;43.882;2023-02-26T04:08:51;99330.81;;;0.79;81.96
70302;BME280;57706;56.326;43.882;2023-02-26T04:11:20;99332.94;;;0.74;81.90
70302;BME280;57706;56.326;43.882;2023-02-26T04:13:46;99317.63;;;0.82;81.21
70302;BME280;57706;56.326;43.882;2023-02-26T04:16:13;99332.94;;;0.74;82.00
70302;BME280;57706;56.326;43.882;2023-02-26T04:18:39;99325.19;;;0.74;81.51
70302;BME280;57706;56.326;43.882;2023-02-26T04:21:10;99328.91;;;0.49;82.32
70302;BME280;57706;56.326;43.882;2023-02-26T04:23:36;99317.69;;;0.71;81.70
70302;BME280;57706;56.326;43.882;2023-02-26T04:26:02;99318.66;;;0.59;81.98
70302;BME280;57706;56.326;43.882;2023-02-26T04:28:28;99325.66;;;0.68;81.68
70302;BME280;57706;56.326;43.882;2023-02-26T04:30:55;99312.13;;;0.76;80.88
70302;BME280;57706;56.326;43.882;2023-02-26T04:33:21;99319.06;;;0.75;81.07
70302;BME280;57706;56.326;43.882;2023-02-26T04:35:48;99309.66;;;0.74;81.10
70302;BME280;57706;56.326;43.882;2023-02-26T04:38:14;99310.41;;;0.65;81.68
70302;BME280;57706;56.326;43.882;2023-02-26T04:40:40;99299.88;;;0.78;80.76
70302;BME280;57706;56.326;43.882;2023-02-26T04:43:09;99302.59;;;0.76;80.98
70302;BME280;57706;56.326;43.882;2023-02-26T04:45:45;99295.88;;;0.95;79.89
70302;BME280;57706;56.326;43.882;2023-02-26T04:48:12;99287.06;;;0.76;80.80
70302;BME280;57706;56.326;43.882;2023-02-26T04:50:38;99278.31;;;0.67;81.24
70302;BME280;57706;56.326;43.882;2023-02-26T04:53:04;99276.72;;;0.76;81.36
70302;BME280;57706;56.326;43.882;2023-02-26T04:55:33;99291.94;;;0.70;80.91
70302;BME280;57706;56.326;43.882;2023-02-26T04:57:59;99282.28;;;0.93;80.20
70302;BME280;57706;56.326;43.882;2023-02-26T05:00:25;99281.19;;;0.95;79.72
70302;BME280;57706;56.326;43.882;2023-02-26T05:02:51;99273.19;;;0.77;80.18
70302;BME280;57706;56.326;43.882;2023-02-26T05:05:17;99271.31;;;0.79;80.57
70302;BME280;57706;56.326;43.882;2023-02-26T05:07:43;99271.53;;;0.76;80.56
70302;BME280;57706;56.326;43.882;2023-02-26T05:10:10;99261.94;;;1.09;79.70
70302;BME280;57706;56.326;43.882;2023-02-26T05:12:36;99257.06;;;1.16;78.49
70302;BME280;57706;56.326;43.882;2023-02-26T05:15:03;99246.91;;;1.03;79.08
70302;BME280;57706;56.326;43.882;2023-02-26T05:17:29;99258.78;;;0.85;80.16
70302;BME280;57706;56.326;43.882;2023-02-26T05:19:55;99263.72;;;0.88;79.85
70302;BME280;57706;56.326;43.882;2023-02-26T05:22:21;99256.66;;;0.90;79.78
70302;BME280;57706;56.326;43.882;2023-02-26T05:24:47;99258.03;;;0.94;79.51
70302;BME280;57706;56.326;43.882;2023-02-26T05:27:13;99245.75;;;1.17;78.29
70302;BME280;57706;56.326;43.882;2023-02-26T05:29:44;99244.50;;;1.12;79.00
70302;BME280;57706;56.326;43.882;2023-02-26T05:32:11;99235.88;;;1.01;78.96
70302;BME280;57706;56.326;43.882;2023-02-26T05:34:37;99221.91;;;1.14;78.66
70302;BME280;57706;56.326;43.882;2023-02-26T05:37:03;99210.47;;;1.16;78.70
70302;BME280;57706;56.326;43.882;2023-02-26T05:39:29;99208.81;;;1.05;79.41
70302;BME280;57706;56.326;43.882;2023-02-26T05:41:55;99211.28;;;1.17;78.80
70302;BME280;57706;56.326;43.882;2023-02-26T05:44:22;99200.28;;;1.25;78.76
70302;BME280;57706;56.326;43.882;2023-02-26T05:46:48;99201.88;;;1.16;79.23
70302;BME280;57706;56.326;43.882;2023-02-26T05:49:14;99200.81;;;0.87;81.46
70302;BME280;57706;56.326;43.882;2023-02-26T05:51:39;99183.38;;;0.89;83.45
70302;BME280;57706;56.326;43.882;2023-02-26T05:54:08;99192.50;;;0.62;84.21
70302;BME280;57706;56.326;43.882;2023-02-26T05:56:34;99182.75;;;0.66;84.36
70302;BME280;57706;56.326;43.882;2023-02-26T05:59:00;99178.34;;;0.57;85.36
70302;BME280;57706;56.326;43.882;2023-02-26T06:01:26;99170.56;;;0.57;85.78
70302;BME280;57706;56.326;43.882;2023-02-26T06:03:52;99177.19;;;0.49;86.98
70302;BME280;57706;56.326;43.882;2023-02-26T06:06:18;99178.16;;;0.27;87.46
70302;BME280;57706;56.326;43.882;2023-02-26T06:08:44;99170.50;;;0.25;87.74
70302;BME280;57706;56.326;43.882;2023-02-26T06:11:10;99158.66;;;0.44;86.95
70302;BME280;57706;56.326;43.882;2023-02-26T06:13:37;99171.16;;;0.39;86.48
70302;BME280;57706;56.326;43.882;2023-02-26T06:16:03;99179.97;;;0.15;87.39
70302;BME280;57706;56.326;43.882;2023-02-26T06:18:29;99152.91;;;0.40;87.45
70302;BME280;57706;56.326;43.882;2023-02-26T06:20:56;99157.28;;;0.40;88.06
70302;BME280;57706;56.326;43.882;2023-02-26T06:23:22;99156.00;;;0.56;88.05
70302;BME280;57706;56.326;43.882;2023-02-26T06:25:52;99164.75;;;0.64;87.23
70302;BME280;57706;56.326;43.882;2023-02-26T06:28:18;99174.69;;;0.38;88.19
70302;BME280;57706;56.326;43.882;2023-02-26T06:30:44;99189.56;;;0.24;88.80
70302;BME280;57706;56.326;43.882;2023-02-26T06:33:11;99184.66;;;0.21;89.38
70302;BME280;57706;56.326;43.882;2023-02-26T06:35:37;99185.16;;;0.04;90.08
70302;BME280;57706;56.326;43.882;2023-02-26T06:38:03;99174.94;;;-0.19;91.56
70302;BME280;57706;56.326;43.882;2023-02-26T06:40:29;99190.66;;;-0.22;92.70
70302;BME280;57706;56.326;43.882;2023-02-26T06:42:55;99186.13;;;0.03;92.76
70302;BME280;57706;56.326;43.882;2023-02-26T06:45:22;99190.53;;;0.12;92.09
70302;BME280;57706;56.326;43.882;2023-02-26T06:47:50;99182.59;;;0.04;92.46
70302;BME280;57706;56.326;43.882;2023-02-26T06:50:16;99190.81;;;0.09;92.72
70302;BME280;57706;56.326;43.882;2023-02-26T06:52:42;99180.47;;;0.09;92.64
70302;BME280;57706;56.326;43.882;2023-02-26T06:55:09;99185.63;;;0.09;92.78
70302;BME280;57706;56.326;43.882;2023-02-26T06:57:35;99181.34;;;0.19;93.09
70302;BME280;57706;56.326;43.882;2023-02-26T07:00:02;99195.97;;;0.09;93.35
70302;BME280;57706;56.326;43.882;2023-02-26T07:02:30;99167.09;;;0.04;93.58
70302;BME280;57706;56.326;43.882;2023-02-26T07:04:56;99170.81;;;0.11;93.92
70302;BME280;57706;56.326;43.882;2023-02-26T07:07:21;99162.25;;;0.10;94.42
70302;BME280;57706;56.326;43.882;2023-02-26T07:09:47;99174.63;;;-0.05;93.98
70302;BME280;57706;56.326;43.882;2023-02-26T07:12:13;99153.97;;;-0.05;94.54
70302;BME280;57706;56.326;43.882;2023-02-26T07:14:39;99153.97;;;-0.05;94.81
70302;BME280;57706;56.326;43.882;2023-02-26T07:17:08;99152.34;;;-0.06;94.97
70302;BME280;57706;56.326;43.882;2023-02-26T07:19:34;99136.41;;;-0.11;95.46
70302;BME280;57706;56.326;43.882;2023-02-26T07:22:00;99144.06;;;-0.21;95.57
70302;BME280;57706;56.326;43.882;2023-02-26T07:24:26;99150.06;;;-0.20;96.35
70302;BME280;57706;56.326;43.882;2023-02-26T07:26:52;99136.53;;;-0.12;96.23
70302;BME280;57706;56.326;43.882;2023-02-26T07:29:18;99140.22;;;-0.26;96.24
70302;BME280;57706;56.326;43.882;2023-02-26T07:31:44;99135.00;;;-0.15;96.66
70302;BME280;57706;56.326;43.882;2023-02-26T07:34:09;99122.09;;;-0.15;96.54
70302;BME280;57706;56.326;43.882;2023-02-26T07:36:36;99125.81;;;-0.08;96.41
70302;BME280;57706;56.326;43.882;2023-02-26T07:39:02;99127.81;;;-0.11;96.24
70302;BME280;57706;56.326;43.882;2023-02-26T07:41:28;99126.56;;;-0.17;96.42
70302;BME280;57706;56.326;43.882;2023-02-26T07:43:54;99116.59;;;-0.22;97.34
70302;BME280;57706;56.326;43.882;2023-02-26T07:46:20;99119.47;;;-0.04;97.13
70302;BME280;57706;56.326;43.882;2023-02-26T07:48:46;99105.09;;;0.04;96.47
70302;BME280;57706;56.326;43.882;2023-02-26T07:51:12;99124.63;;;-0.04;96.41
70302;BME280;57706;56.326;43.882;2023-02-26T07:53:39;99122.75;;;-0.02;96.46
70302;BME280;57706;56.326;43.882;2023-02-26T07:56:05;99111.38;;;0.11;96.18
70302;BME280;57706;56.326;43.882;2023-02-26T07:58:31;99100.63;;;0.06;96.31
70302;BME280;57706;56.326;43.882;2023-02-26T08:00:57;99113.59;;;0.16;96.65
70302;BME280;57706;56.326;43.882;2023-02-26T08:03:23;99122.34;;;0.24;95.91
70302;BME280;57706;56.326;43.882;2023-02-26T08:05:49;99121.59;;;0.34;95.80
70302;BME280;57706;56.326;43.882;2023-02-26T08:08:15;99106.09;;;0.34;95.55
70302;BME280;57706;56.326;43.882;2023-02-26T08:10:42;99117.28;;;0.44;94.99
70302;BME280;57706;56.326;43.882;2023-02-26T08:13:08;99106.06;;;0.55;94.56
70302;BME280;57706;56.326;43.882;2023-02-26T08:15:34;99102.41;;;0.58;94.29
70302;BME280;57706;56.326;43.882;2023-02-26T08:18:00;99099.97;;;0.66;94.26
70302;BME280;57706;56.326;43.882;2023-02-26T08:20:26;99102.44;;;0.67;94.05
70302;BME280;57706;56.326;43.882;2023-02-26T08:22:52;99130.50;;;0.72;94.12
70302;BME280;57706;56.326;43.882;2023-02-26T08:25:19;99110.72;;;1.02;92.92
70302;BME280;57706;56.326;43.882;2023-02-26T08:27:45;99102.69;;;1.05;92.75
70302;BME280;57706;56.326;43.882;2023-02-26T08:30:12;99106.13;;;1.16;92.56
70302;BME280;57706;56.326;43.882;2023-02-26T08:32:38;99116.47;;;1.16;92.03
70302;BME280;57706;56.326;43.882;2023-02-26T08:35:08;99118.06;;;0.97;92.44
70302;BME280;57706;56.326;43.882;2023-02-26T08:37:34;99104.97;;;0.89;93.23
70302;BME280;57706;56.326;43.882;2023-02-26T08:40:01;99115.88;;;1.02;93.30
70302;BME280;57706;56.326;43.882;2023-02-26T08:42:28;99101.16;;;0.93;92.97
70302;BME280;57706;56.326;43.882;2023-02-26T08:44:54;99100.13;;;1.05;93.59
70302;BME280;57706;56.326;43.882;2023-02-26T08:47:20;99104.78;;;1.51;92.79
70302;BME280;57706;56.326;43.882;2023-02-26T08:49:47;99092.94;;;1.58;91.78
70302;BME280;57706;56.326;43.882;2023-02-26T08:52:13;99114.63;;;1.37;91.28
70302;BME280;57706;56.326;43.882;2023-02-26T08:54:40;99105.63;;;1.51;92.16
70302;BME280;57706;56.326;43.882;2023-02-26T08:57:06;99114.75;;;1.46;92.31
70302;BME280;57706;56.326;43.882;2023-02-26T08:59:32;99124.97;;;1.77;91.60
70302;BME280;57706;56.326;43.882;2023-02-26T09:01:58;99111.34;;;1.75;91.20
70302;BME280;57706;56.326;43.882;2023-02-26T09:04:24;99113.38;;;2.01;91.29
70302;BME280;57706;56.326;43.882;2023-02-26T09:06:51;99121.97;;;1.91;90.85
70302;BME280;57706;56.326;43.882;2023-02-26T09:09:18;99099.63;;;1.90;89.07
70302;BME280;57706;56.326;43.882;2023-02-26T09:11:44;99088.41;;;2.00;89.60
70302;BME280;57706;56.326;43.882;2023-02-26T09:14:11;99085.41;;;2.14;89.63
70302;BME280;57706;56.326;43.882;2023-02-26T09:16:37;99090.19;;;2.57;88.82
70302;BME280;57706;56.326;43.882;2023-02-26T09:19:04;99115.06;;;2.50;88.54
70302;BME280;57706;56.326;43.882;2023-02-26T09:21:32;99098.97;;;2.36;87.29
70302;BME280;57706;56.326;43.882;2023-02-26T09:23:58;99102.38;;;2.46;87.05
70302;BME280;57706;56.326;43.882;2023-02-26T09:26:24;99105.19;;;2.63;87.06
70302;BME280;57706;56.326;43.882;2023-02-26T09:28:50;99084.91;;;2.77;85.46
70302;BME280;57706;56.326;43.882;2023-02-26T09:31:17;99082.88;;;2.98;85.12
70302;BME280;57706;56.326;43.882;2023-02-26T09:33:43;99070.53;;;3.47;83.88
70302;BME280;57706;56.326;43.882;2023-02-26T09:36:09;99073.38;;;3.53;83.93
70302;BME280;57706;56.326;43.882;2023-02-26T09:38:35;99083.78;;;3.53;82.23
70302;BME280;57706;56.326;43.882;2023-02-26T09:41:09;99092.72;;;3.77;81.40
70302;BME280;57706;56.326;43.882;2023-02-26T09:52:29;99099.91;;;3.83;81.12
70302;BME280;57706;56.326;43.882;2023-02-26T09:55:18;99080.09;;;3.82;81.24
70302;BME280;57706;56.326;43.882;2023-02-26T09:57:47;99070.84;;;4.06;79.57
70302;BME280;57706;56.326;43.882;2023-02-26T10:03:31;99072.16;;;4.37;78.43
70302;BME280;57706;56.326;43.882;2023-02-26T10:06:30;99113.16;;;4.17;78.13
70302;BME280;57706;56.326;43.882;2023-02-26T10:09:11;99092.69;;;4.83;77.29
70302;BME280;57706;56.326;43.882;2023-02-26T10:12:01;99102.16;;;4.23;78.28
70302;BME280;57706;56.326;43.882;2023-02-26T10:17:33;99091.31;;;4.09;78.80
70302;BME280;57706;56.326;43.882;2023-02-26T10:20:10;99095.38;;;3.85;78.87
70302;BME280;57706;56.326;43.882;2023-02-26T10:25:19;99104.16;;;3.84;80.23
70302;BME280;57706;56.326;43.882;2023-02-26T10:30:59;99097.75;;;3.97;80.03
70302;BME280;57706;56.326;43.882;2023-02-26T10:34:16;99100.31;;;4.41;78.65
70302;BME280;57706;56.326;43.882;2023-02-26T10:36:55;99103.31;;;4.29;77.87
70302;BME280;57706;56.326;43.882;2023-02-26T10:39:34;99117.75;;;4.23;77.41
70302;BME280;57706;56.326;43.882;2023-02-26T10:42:09;99112.56;;;4.23;78.25
70302;BME280;57706;56.326;43.882;2023-02-26T10:44:48;99129.47;;;4.27;78.22
70302;BME280;57706;56.326;43.882;2023-02-26T10:50:08;99120.91;;;4.08;80.20
70302;BME280;57706;56.326;43.882;2023-02-26T10:52:35;99117.09;;;4.21;78.99
70302;BME280;57706;56.326;43.882;2023-02-26T10:58:08;99109.53;;;4.62;76.33
70302;BME280;57706;56.326;43.882;2023-02-26T11:00:34;99113.44;;;4.66;76.67
70302;BME280;57706;56.326;43.882;2023-02-26T11:03:02;99111.91;;;4.21;78.50
70302;BME280;57706;56.326;43.882;2023-02-26T11:05:31;99113.75;;;4.10;79.30
70302;BME280;57706;56.326;43.882;2023-02-26T11:13:20;99097.03;;;4.13;80.23
70302;BME280;57706;56.326;43.882;2023-02-26T11:15:49;99117.31;;;4.09;80.55
70302;BME280;57706;56.326;43.882;2023-02-26T11:18:49;99111.13;;;4.55;78.45
70302;BME280;57706;56.326;43.882;2023-02-26T11:21:26;99118.28;;;4.53;77.79
70302;BME280;57706;56.326;43.882;2023-02-26T11:24:17;99125.53;;;4.41;78.79
70302;BME280;57706;56.326;43.882;2023-02-26T11:26:47;99126.88;;;4.27;78.87
70302;BME280;57706;56.326;43.882;2023-02-26T11:29:19;99120.94;;;4.35;78.87
70302;BME280;57706;56.326;43.882;2023-02-26T11:31:53;99124.84;;;4.12;80.16
70302;BME280;57706;56.326;43.882;2023-02-26T11:34:24;99127.13;;;4.16;79.20
70302;BME280;57706;56.326;43.882;2023-02-26T11:36:53;99140.66;;;4.46;77.48
70302;BME280;57706;56.326;43.882;2023-02-26T11:39:23;99128.69;;;4.53;78.08
70302;BME280;57706;56.326;43.882;2023-02-26T11:41:54;99142.75;;;4.42;79.23
70302;BME280;57706;56.326;43.882;2023-02-26T11:44:39;99137.75;;;4.75;77.22
70302;BME280;57706;56.326;43.882;2023-02-26T11:47:14;99145.78;;;4.64;77.28
70302;BME280;57706;56.326;43.882;2023-02-26T11:49:49;99141.16;;;4.76;76.43
70302;BME280;57706;56.326;43.882;2023-02-26T11:53:03;99137.81;;;4.57;75.93
70302;BME280;57706;56.326;43.882;2023-02-26T11:55:28;99134.19;;;4.50;76.64
70302;BME280;57706;56.326;43.882;2023-02-26T11:57:56;99137.94;;;4.82;75.53
70302;BME280;57706;56.326;43.882;2023-02-26T12:00:29;99128.63;;;5.22;74.89
70302;BME280;57706;56.326;43.882;2023-02-26T12:03:03;99137.38;;;5.64;72.92
70302;BME280;57706;56.326;43.882;2023-02-26T12:05:30;99137.50;;;5.46;72.87
70302;BME280;57706;56.326;43.882;2023-02-26T12:07:57;99150.31;;;5.23;73.11
70302;BME280;57706;56.326;43.882;2023-02-26T12:10:39;99147.06;;;4.86;73.47
70302;BME280;57706;56.326;43.882;2023-02-26T12:13:56;99154.34;;;4.48;74.77
70302;BME280;57706;56.326;43.882;2023-02-26T12:19:00;99154.28;;;4.39;76.11
70302;BME280;57706;56.326;43.882;2023-02-26T12:24:47;99150.34;;;4.09;76.92
70302;BME280;57706;56.326;43.882;2023-02-26T12:27:27;99145.88;;;4.01;77.91
70302;BME280;57706;56.326;43.882;2023-02-26T12:35:44;99159.03;;;3.81;80.44
70302;BME280;57706;56.326;43.882;2023-02-26T12:38:21;99159.94;;;3.72;81.64
70302;BME280;57706;56.326;43.882;2023-02-26T12:41:11;99170.53;;;3.61;79.81
70302;BME280;57706;56.326;43.882;2023-02-26T12:43:51;99172.25;;;3.52;80.68
70302;BME280;57706;56.326;43.882;2023-02-26T12:54:41;99190.19;;;3.17;77.39
70302;BME280;57706;56.326;43.882;2023-02-26T13:03:02;99179.28;;;4.32;70.33
70302;BME280;57706;56.326;43.882;2023-02-26T13:08:50;99189.75;;;3.68;72.05
70302;BME280;57706;56.326;43.882;2023-02-26T13:14:34;99188.63;;;3.34;73.58
70302;BME280;57706;56.326;43.882;2023-02-26T13:19:49;99195.03;;;3.02;72.99
70302;BME280;57706;56.326;43.882;2023-02-26T13:22:25;99195.28;;;3.09;72.39
70302;BME280;57706;56.326;43.882;2023-02-26T13:27:58;99204.06;;;2.98;68.95
70302;BME280;57706;56.326;43.882;2023-02-26T13:30:31;99212.69;;;2.98;67.95
70302;BME280;57706;56.326;43.882;2023-02-26T13:32:59;99210.75;;;3.00;66.89
70302;BME280;57706;56.326;43.882;2023-02-26T13:37:57;99225.56;;;2.80;67.31
70302;BME280;57706;56.326;43.882;2023-02-26T13:40:49;99234.06;;;2.72;66.57
70302;BME280;57706;56.326;43.882;2023-02-26T13:51:44;99247.03;;;2.72;65.36
70302;BME280;57706;56.326;43.882;2023-02-26T14:04:58;99244.31;;;2.64;65.63
70302;BME280;57706;56.326;43.882;2023-02-26T14:07:47;99250.97;;;2.77;63.38
70302;BME280;57706;56.326;43.882;2023-02-26T14:16:28;99252.47;;;2.89;62.84
70302;BME280;57706;56.326;43.882;2023-02-26T14:29:55;99276.13;;;2.66;63.78
70302;BME280;57706;56.326;43.882;2023-02-26T14:32:30;99281.59;;;2.63;63.25
70302;BME280;57706;56.326;43.882;2023-02-26T14:35:30;99287.75;;;2.42;64.26
70302;BME280;57706;56.326;43.882;2023-02-26T14:38:05;99287.59;;;2.73;63.06
70302;BME280;57706;56.326;43.882;2023-02-26T14:40:41;99300.72;;;2.62;64.32
70302;BME280;57706;56.326;43.882;2023-02-26T14:43:17;99306.44;;;2.75;63.68
70302;BME280;57706;56.326;43.882;2023-02-26T14:45:46;99285.16;;;2.62;64.11
70302;BME280;57706;56.326;43.882;2023-02-26T14:48:15;99308.59;;;2.80;63.66
70302;BME280;57706;56.326;43.882;2023-02-26T14:59:34;99312.16;;;2.69;67.93
70302;BME280;57706;56.326;43.882;2023-02-26T15:08:23;99319.00;;;2.60;67.52
70302;BME280;57706;56.326;43.882;2023-02-26T15:11:08;99323.91;;;2.34;68.98
70302;BME280;57706;56.326;43.882;2023-02-26T15:22:15;99341.66;;;2.48;68.58
70302;BME280;57706;56.326;43.882;2023-02-26T15:24:48;99336.06;;;2.43;68.34
70302;BME280;57706;56.326;43.882;2023-02-26T15:27:17;99341.13;;;2.55;68.63
70302;BME280;57706;56.326;43.882;2023-02-26T15:29:45;99335.66;;;2.58;68.61
70302;BME280;57706;56.326;43.882;2023-02-26T15:32:26;99338.53;;;2.55;68.52
70302;BME280;57706;56.326;43.882;2023-02-26T15:35:22;99342.38;;;2.60;68.52
70302;BME280;57706;56.326;43.882;2023-02-26T15:37:59;99332.94;;;2.50;68.26
70302;BME280;57706;56.326;43.882;2023-02-26T15:40:27;99334.28;;;2.34;68.90
70302;BME280;57706;56.326;43.882;2023-02-26T15:42:56;99343.03;;;2.63;67.19
70302;BME280;57706;56.326;43.882;2023-02-26T15:45:33;99343.59;;;2.46;67.86
70302;BME280;57706;56.326;43.882;2023-02-26T15:48:04;99344.41;;;2.57;67.38
70302;BME280;57706;56.326;43.882;2023-02-26T15:50:36;99337.84;;;2.72;65.73
70302;BME280;57706;56.326;43.882;2023-02-26T15:53:05;99344.13;;;2.80;65.47
70302;BME280;57706;56.326;43.882;2023-02-26T15:55:46;99347.69;;;2.59;66.10
70302;BME280;57706;56.326;43.882;2023-02-26T15:58:32;99346.31;;;2.55;66.14
70302;BME280;57706;56.326;43.882;2023-02-26T16:01:01;99339.75;;;2.51;65.91
70302;BME280;57706;56.326;43.882;2023-02-26T16:03:36;99347.00;;;2.37;66.33
70302;BME280;57706;56.326;43.882;2023-02-26T16:06:04;99340.03;;;2.47;66.79
70302;BME280;57706;56.326;43.882;2023-02-26T16:08:31;99342.78;;;2.56;67.08
70302;BME280;57706;56.326;43.882;2023-02-26T16:11:00;99340.56;;;2.61;66.75
70302;BME280;57706;56.326;43.882;2023-02-26T16:13:36;99345.22;;;2.67;65.75
70302;BME280;57706;56.326;43.882;2023-02-26T16:16:12;99346.56;;;2.32;67.41
70302;BME280;57706;56.326;43.882;2023-02-26T16:18:40;99350.41;;;2.67;65.12
70302;BME280;57706;56.326;43.882;2023-02-26T16:21:08;99354.25;;;2.63;65.27
70302;BME280;57706;56.326;43.882;2023-02-26T16:23:49;99353.69;;;2.59;65.12
70302;BME280;57706;56.326;43.882;2023-02-26T16:26:28;99351.78;;;2.71;64.09